Time;durP1;ratioP1;P1;durP2;ratioP2;P2;SDS_P1;SDS_P2;PMS_P1;PMS_P2;Temp;Humidity;BMP_temperature;BMP_pressure;BME280_temperature;BME280_humidity;BME280_pressure;Samples;Min_cycle;Max_cycle;Signal;HPM_P1;HPM_P2
2022/10/27 00:01:38;;;;;;;;;;;10.40;99.90;;;;;;5124710;28;19956;-71
2022/10/27 00:04:05;;;;;;;;;;;10.40;99.90;;;;;;5124911;28;20033;-71
2022/10/27 00:06:31;;;;;;;;;;;10.40;99.90;;;;;;5119640;28;19920;-71
2022/10/27 00:08:59;;;;;;;;;;;10.40;99.90;;;;;;5104179;28;20258;-71
2022/10/27 00:11:26;;;;;;;;;;;10.40;99.90;;;;;;5105514;28;19926;-71
2022/10/27 00:13:52;;;;;;;;;;;10.40;99.90;;;;;;5124708;28;19926;-71
2022/10/27 00:16:19;;;;;;;;;;;10.30;99.90;;;;;;5123811;28;20223;-70
2022/10/27 00:18:46;;;;;;;;;;;10.30;99.90;;;;;;5124851;28;19995;-71
2022/10/27 00:21:13;;;;;;;;;;;10.30;99.90;;;;;;5124992;28;20221;-71
2022/10/27 00:23:40;;;;;;;;;;;10.20;99.90;;;;;;5124377;28;19926;-71
2022/10/27 00:26:11;;;;;;;;;;;10.20;99.90;;;;;;5123272;28;19919;-70
2022/10/27 00:28:37;;;;;;;;;;;10.20;99.90;;;;;;5124300;28;19920;-70
2022/10/27 00:31:06;;;;;;;;;;;10.10;99.90;;;;;;5123996;28;19920;-70
2022/10/27 00:33:33;;;;;;;;;;;10.10;99.90;;;;;;5124332;28;19920;-70
2022/10/27 00:36:03;;;;;;;;;;;10.10;99.90;;;;;;5123790;28;19920;-71
2022/10/27 00:38:29;;;;;;;;;;;10.10;99.90;;;;;;5124064;28;19920;-71
2022/10/27 00:40:56;;;;;;;;;;;10.10;99.90;;;;;;5124410;28;19983;-70
2022/10/27 00:43:26;;;;;;;;;;;10.10;99.90;;;;;;5124058;28;20140;-71
2022/10/27 00:45:53;;;;;;;;;;;10.00;99.90;;;;;;5123509;28;20159;-71
2022/10/27 00:48:19;;;;;;;;;;;10.00;99.90;;;;;;5124074;28;20207;-70
2022/10/27 00:50:46;;;;;;;;;;;10.00;99.90;;;;;;5123998;28;19987;-71
2022/10/27 00:53:13;;;;;;;;;;;10.00;99.90;;;;;;5123946;28;20122;-71
2022/10/27 00:55:39;;;;;;;;;;;9.90;99.90;;;;;;5123408;28;19920;-70
2022/10/27 00:58:07;;;;;;;;;;;9.90;99.90;;;;;;5124250;28;20186;-71
2022/10/27 01:00:36;;;;;;;;;;;9.90;99.90;;;;;;5124443;28;19926;-71
2022/10/27 01:03:03;;;;;;;;;;;9.90;99.90;;;;;;5123769;28;19920;-70
2022/10/27 01:05:30;;;;;;;;;;;9.80;99.90;;;;;;5123322;28;19919;-70
2022/10/27 01:07:58;;;;;;;;;;;9.80;99.90;;;;;;5123697;28;19926;-70
2022/10/27 01:10:25;;;;;;;;;;;9.80;99.90;;;;;;5123828;28;20169;-70
2022/10/27 01:12:53;;;;;;;;;;;9.80;99.90;;;;;;5123780;28;19926;-71
2022/10/27 01:15:20;;;;;;;;;;;9.80;99.90;;;;;;5123001;28;20184;-70
2022/10/27 01:17:52;;;;;;;;;;;9.80;99.90;;;;;;5123495;28;20207;-71
2022/10/27 01:20:36;;;;;;;;;;;9.80;99.90;;;;;;5123756;28;19920;-71
2022/10/27 01:23:05;;;;;;;;;;;9.80;99.90;;;;;;5123113;28;19920;-70
2022/10/27 01:25:47;;;;;;;;;;;9.80;99.90;;;;;;5122998;28;19919;-71
2022/10/27 01:28:32;;;;;;;;;;;9.80;99.90;;;;;;5123747;28;19987;-71
2022/10/27 01:31:03;;;;;;;;;;;9.70;99.90;;;;;;5123646;28;19920;-70
2022/10/27 01:33:32;;;;;;;;;;;9.60;99.90;;;;;;5123682;28;19926;-70
2022/10/27 01:36:02;;;;;;;;;;;9.50;99.90;;;;;;5123294;28;20149;-71
2022/10/27 01:38:31;;;;;;;;;;;9.50;99.90;;;;;;5124820;28;19919;-71
2022/10/27 01:41:00;;;;;;;;;;;9.50;99.90;;;;;;5127954;28;19920;-71
2022/10/27 01:43:27;;;;;;;;;;;9.40;99.90;;;;;;5127462;28;19962;-70
2022/10/27 01:45:55;;;;;;;;;;;9.40;99.90;;;;;;5126712;28;19920;-70
2022/10/27 01:48:23;;;;;;;;;;;9.40;99.90;;;;;;5127660;28;19920;-70
2022/10/27 01:50:50;;;;;;;;;;;9.40;99.90;;;;;;5127692;28;19981;-70
2022/10/27 01:53:17;;;;;;;;;;;9.30;99.90;;;;;;5127441;28;20278;-71
2022/10/27 01:55:48;;;;;;;;;;;9.30;99.90;;;;;;5126529;28;20254;-71
2022/10/27 01:58:41;;;;;;;;;;;9.30;99.90;;;;;;5127432;28;19920;-71
2022/10/27 02:01:19;;;;;;;;;;;9.20;99.90;;;;;;5079134;28;19979;-71
2022/10/27 02:03:50;;;;;;;;;;;9.20;99.90;;;;;;5127238;28;19927;-70
2022/10/27 02:06:21;;;;;;;;;;;9.20;99.90;;;;;;5126308;28;19981;-71
2022/10/27 02:08:52;;;;;;;;;;;9.20;99.90;;;;;;5127192;28;19919;-70
2022/10/27 02:11:18;;;;;;;;;;;9.20;99.90;;;;;;5127290;28;19962;-71
2022/10/27 02:13:46;;;;;;;;;;;9.20;99.90;;;;;;5126920;28;19926;-70
2022/10/27 02:16:14;;;;;;;;;;;9.20;99.90;;;;;;5126431;28;19926;-71
2022/10/27 02:18:43;;;;;;;;;;;9.20;99.90;;;;;;5126862;28;19926;-70
2022/10/27 02:21:11;;;;;;;;;;;9.20;99.90;;;;;;5126744;28;20221;-71
2022/10/27 02:23:38;;;;;;;;;;;9.20;99.90;;;;;;5126641;28;19926;-70
2022/10/27 02:26:10;;;;;;;;;;;9.10;99.90;;;;;;5126226;28;20152;-70
2022/10/27 02:28:39;;;;;;;;;;;9.10;99.90;;;;;;5126704;28;19920;-71
2022/10/27 02:31:07;;;;;;;;;;;9.10;99.90;;;;;;5126749;28;19919;-71
2022/10/27 02:33:34;;;;;;;;;;;9.10;99.90;;;;;;5126537;28;19920;-70
2022/10/27 02:36:01;;;;;;;;;;;9.00;99.90;;;;;;5125738;28;19919;-70
2022/10/27 02:38:29;;;;;;;;;;;9.00;99.90;;;;;;5126674;28;19926;-70
2022/10/27 02:40:55;;;;;;;;;;;9.00;99.90;;;;;;5126340;28;19920;-71
2022/10/27 02:43:22;;;;;;;;;;;9.00;99.90;;;;;;5126271;28;21043;-71
2022/10/27 02:45:48;;;;;;;;;;;9.00;99.90;;;;;;5125557;28;19947;-70
2022/10/27 02:48:15;;;;;;;;;;;9.00;99.90;;;;;;5126364;28;19947;-70
2022/10/27 02:50:42;;;;;;;;;;;8.90;99.90;;;;;;5126361;28;19933;-70
2022/10/27 02:53:08;;;;;;;;;;;8.90;99.90;;;;;;5125963;28;19987;-70
2022/10/27 02:55:36;;;;;;;;;;;8.80;99.90;;;;;;5125835;28;19926;-70
2022/10/27 02:58:03;;;;;;;;;;;8.80;99.90;;;;;;5126015;28;19920;-70
2022/10/27 03:00:30;;;;;;;;;;;8.70;99.90;;;;;;5123532;28;19990;-71
2022/10/27 03:02:57;;;;;;;;;;;8.70;99.90;;;;;;5126581;28;19939;-70
2022/10/27 03:05:24;;;;;;;;;;;8.70;99.90;;;;;;5105071;28;20308;-70
2022/10/27 03:07:50;;;;;;;;;;;8.70;99.90;;;;;;5105982;28;19951;-71
2022/10/27 03:10:19;;;;;;;;;;;8.70;99.90;;;;;;5103338;28;19943;-71
2022/10/27 03:12:47;;;;;;;;;;;8.70;99.90;;;;;;5105897;28;19920;-71
2022/10/27 03:15:14;;;;;;;;;;;8.70;99.90;;;;;;5105161;28;19920;-71
2022/10/27 03:17:43;;;;;;;;;;;8.70;99.90;;;;;;5105343;28;19926;-70
2022/10/27 03:20:10;;;;;;;;;;;8.70;99.90;;;;;;5105322;28;20219;-70
2022/10/27 03:22:37;;;;;;;;;;;8.70;99.90;;;;;;5105755;28;19986;-71
2022/10/27 03:25:04;;;;;;;;;;;8.60;99.90;;;;;;5104952;28;19928;-71
2022/10/27 03:27:30;;;;;;;;;;;8.60;99.90;;;;;;5105484;28;19983;-70
2022/10/27 03:29:58;;;;;;;;;;;8.60;99.90;;;;;;5105299;28;19987;-71
2022/10/27 03:32:25;;;;;;;;;;;8.60;99.90;;;;;;5105165;28;19920;-70
2022/10/27 03:34:51;;;;;;;;;;;8.60;99.90;;;;;;5104654;28;19926;-71
2022/10/27 03:37:18;;;;;;;;;;;8.50;99.90;;;;;;5105359;28;20003;-71
2022/10/27 03:39:45;;;;;;;;;;;8.50;99.90;;;;;;5105311;28;19999;-71
2022/10/27 03:42:11;;;;;;;;;;;8.50;99.90;;;;;;5105398;28;19987;-70
2022/10/27 03:44:38;;;;;;;;;;;8.50;99.90;;;;;;5104800;28;19926;-70
2022/10/27 03:47:06;;;;;;;;;;;8.50;99.90;;;;;;5104925;28;20093;-70
2022/10/27 03:49:32;;;;;;;;;;;8.50;99.90;;;;;;5105061;28;19920;-70
2022/10/27 03:51:59;;;;;;;;;;;8.50;99.90;;;;;;5105173;28;19988;-70
2022/10/27 03:54:29;;;;;;;;;;;8.50;99.90;;;;;;5104742;28;20190;-70
2022/10/27 03:56:55;;;;;;;;;;;8.40;99.90;;;;;;5105245;28;19927;-70
2022/10/27 03:59:22;;;;;;;;;;;8.40;99.90;;;;;;5104467;28;20255;-71
2022/10/27 04:01:49;;;;;;;;;;;8.40;99.90;;;;;;5103908;28;19920;-70
2022/10/27 04:04:17;;;;;;;;;;;8.40;99.90;;;;;;5114283;28;19920;-70
2022/10/27 04:06:43;;;;;;;;;;;8.30;99.90;;;;;;5124079;28;19991;-70
2022/10/27 04:09:10;;;;;;;;;;;8.30;99.90;;;;;;5124750;28;19987;-71
2022/10/27 04:11:36;;;;;;;;;;;8.30;99.90;;;;;;5122834;28;19955;-71
2022/10/27 04:14:03;;;;;;;;;;;8.30;99.90;;;;;;5125089;28;19982;-70
2022/10/27 04:16:30;;;;;;;;;;;8.30;99.90;;;;;;5124164;28;19926;-70
2022/10/27 04:18:56;;;;;;;;;;;8.20;99.90;;;;;;5125186;28;19920;-71
2022/10/27 04:21:24;;;;;;;;;;;8.20;99.90;;;;;;5124295;28;20345;-70
2022/10/27 04:23:51;;;;;;;;;;;8.20;99.90;;;;;;5124790;28;19920;-71
2022/10/27 04:26:17;;;;;;;;;;;8.10;99.90;;;;;;5124085;28;19998;-71
2022/10/27 04:28:44;;;;;;;;;;;8.10;99.90;;;;;;5124754;28;19991;-70
2022/10/27 04:31:11;;;;;;;;;;;8.10;99.90;;;;;;5124919;28;20009;-70
2022/10/27 04:33:40;;;;;;;;;;;8.10;99.90;;;;;;5122240;28;20310;-70
2022/10/27 04:36:07;;;;;;;;;;;8.10;99.90;;;;;;5124301;28;20170;-70
2022/10/27 04:38:35;;;;;;;;;;;8.10;99.90;;;;;;5124369;28;19983;-71
2022/10/27 04:41:01;;;;;;;;;;;8.10;99.90;;;;;;5124330;28;20215;-70
2022/10/27 04:43:28;;;;;;;;;;;8.10;99.90;;;;;;5124415;28;19982;-70
2022/10/27 04:45:55;;;;;;;;;;;8.10;99.90;;;;;;5123878;28;19919;-70
2022/10/27 04:48:21;;;;;;;;;;;8.10;99.90;;;;;;5124441;28;20225;-70
2022/10/27 04:50:48;;;;;;;;;;;8.10;99.90;;;;;;5124444;28;19983;-70
2022/10/27 04:53:14;;;;;;;;;;;8.10;99.90;;;;;;5124220;28;20262;-70
2022/10/27 04:55:42;;;;;;;;;;;8.10;99.90;;;;;;5123556;28;19986;-70
2022/10/27 04:58:09;;;;;;;;;;;8.10;99.90;;;;;;5124322;28;19978;-70
2022/10/27 05:00:36;;;;;;;;;;;8.00;99.90;;;;;;5124010;28;20245;-69
2022/10/27 05:03:02;;;;;;;;;;;8.00;99.90;;;;;;5124283;28;19923;-70
2022/10/27 05:05:29;;;;;;;;;;;8.00;99.90;;;;;;5123146;28;19926;-72
2022/10/27 05:07:56;;;;;;;;;;;8.00;99.90;;;;;;5123991;28;20324;-70
2022/10/27 05:10:23;;;;;;;;;;;8.00;99.90;;;;;;5124235;28;19927;-70
2022/10/27 05:12:51;;;;;;;;;;;8.00;99.90;;;;;;5122935;28;20288;-70
2022/10/27 05:15:18;;;;;;;;;;;8.00;99.90;;;;;;5123447;28;19919;-72
2022/10/27 05:17:45;;;;;;;;;;;8.00;99.90;;;;;;5123716;28;19947;-68
2022/10/27 05:20:12;;;;;;;;;;;8.00;99.90;;;;;;5123695;28;19926;-68
2022/10/27 05:22:39;;;;;;;;;;;7.90;99.90;;;;;;5123640;28;20175;-69
2022/10/27 05:25:06;;;;;;;;;;;7.90;99.90;;;;;;5122793;28;20224;-70
2022/10/27 05:27:32;;;;;;;;;;;7.90;99.90;;;;;;5123261;28;19927;-70
2022/10/27 05:30:00;;;;;;;;;;;7.90;99.90;;;;;;5123528;28;20092;-70
2022/10/27 05:32:27;;;;;;;;;;;7.90;99.90;;;;;;5122984;28;19920;-70
2022/10/27 05:34:54;;;;;;;;;;;7.90;99.90;;;;;;5116613;28;19920;-70
2022/10/27 05:37:20;;;;;;;;;;;7.90;99.90;;;;;;5103465;28;19926;-71
2022/10/27 05:39:47;;;;;;;;;;;7.90;99.90;;;;;;5122969;28;19951;-70
2022/10/27 05:42:14;;;;;;;;;;;7.90;99.90;;;;;;5123596;28;19982;-70
2022/10/27 05:44:40;;;;;;;;;;;7.90;99.90;;;;;;5122909;28;19991;-70
2022/10/27 05:47:09;;;;;;;;;;;7.80;99.90;;;;;;5123532;28;19986;-70
2022/10/27 05:49:35;;;;;;;;;;;7.90;99.90;;;;;;5123925;28;19920;-70
2022/10/27 05:52:02;;;;;;;;;;;7.80;99.90;;;;;;5123687;28;19982;-70
2022/10/27 05:54:28;;;;;;;;;;;7.80;99.90;;;;;;5123676;28;20165;-70
2022/10/27 05:56:55;;;;;;;;;;;7.80;99.90;;;;;;5123451;28;19990;-70
2022/10/27 05:59:22;;;;;;;;;;;7.80;99.90;;;;;;5123750;28;19994;-69
2022/10/27 06:01:48;;;;;;;;;;;7.80;99.90;;;;;;5123380;28;19994;-69
2022/10/27 06:04:16;;;;;;;;;;;7.80;99.90;;;;;;5123847;28;19986;-70
2022/10/27 06:06:43;;;;;;;;;;;7.80;99.90;;;;;;5122959;28;19920;-70
2022/10/27 06:09:09;;;;;;;;;;;7.80;99.90;;;;;;5123597;28;20158;-70
2022/10/27 06:11:36;;;;;;;;;;;7.80;99.90;;;;;;5123645;28;19952;-70
2022/10/27 06:14:03;;;;;;;;;;;7.80;99.90;;;;;;5123688;28;20044;-70
2022/10/27 06:16:29;;;;;;;;;;;7.80;99.90;;;;;;5122917;28;19926;-70
2022/10/27 06:18:56;;;;;;;;;;;7.80;99.90;;;;;;5123615;28;19970;-70
2022/10/27 06:21:24;;;;;;;;;;;7.80;99.90;;;;;;5123527;28;19957;-70
2022/10/27 06:23:51;;;;;;;;;;;7.80;99.90;;;;;;5123461;28;19924;-70
2022/10/27 06:26:17;;;;;;;;;;;7.80;99.90;;;;;;5126476;28;20254;-70
2022/10/27 06:28:44;;;;;;;;;;;7.90;99.90;;;;;;5127117;28;19992;-70
2022/10/27 06:31:11;;;;;;;;;;;7.80;99.90;;;;;;5126888;28;19926;-69
2022/10/27 06:33:37;;;;;;;;;;;7.90;99.90;;;;;;5116399;28;19954;-70
2022/10/27 06:36:04;;;;;;;;;;;7.90;99.90;;;;;;5123779;28;20114;-70
2022/10/27 06:38:32;;;;;;;;;;;7.90;99.90;;;;;;5106155;28;19987;-69
2022/10/27 06:40:59;;;;;;;;;;;7.90;99.90;;;;;;5106110;28;20329;-70
2022/10/27 06:43:26;;;;;;;;;;;8.00;99.90;;;;;;5106367;28;19986;-69
2022/10/27 06:45:52;;;;;;;;;;;7.90;99.90;;;;;;5103650;28;19992;-70
2022/10/27 06:48:19;;;;;;;;;;;8.00;99.90;;;;;;5105139;28;20045;-70
2022/10/27 06:50:46;;;;;;;;;;;7.90;99.90;;;;;;5110247;28;20321;-70
2022/10/27 06:53:12;;;;;;;;;;;8.00;99.90;;;;;;5105889;28;19958;-70
2022/10/27 06:55:40;;;;;;;;;;;8.00;99.90;;;;;;5105441;28;19955;-70
2022/10/27 06:58:07;;;;;;;;;;;8.00;99.90;;;;;;5105693;28;19928;-70
2022/10/27 07:00:33;;;;;;;;;;;8.10;99.90;;;;;;5123441;28;19966;-70
2022/10/27 07:03:00;;;;;;;;;;;8.10;99.90;;;;;;5126196;28;19983;-70
2022/10/27 07:05:27;;;;;;;;;;;8.10;99.90;;;;;;5125269;28;20230;-71
2022/10/27 07:07:53;;;;;;;;;;;8.10;99.90;;;;;;5109585;28;19983;-70
2022/10/27 07:10:20;;;;;;;;;;;8.20;99.90;;;;;;5121077;28;20271;-70
2022/10/27 07:12:56;;;;;;;;;;;8.20;99.90;;;;;;5125860;28;19975;-70
2022/10/27 07:15:22;;;;;;;;;;;8.30;99.90;;;;;;5124633;28;20211;-70
2022/10/27 07:17:54;;;;;;;;;;;8.30;99.90;;;;;;5125044;28;19986;-70
2022/10/27 07:20:20;;;;;;;;;;;8.30;99.90;;;;;;5125832;28;19983;-70
2022/10/27 07:22:47;;;;;;;;;;;8.30;99.90;;;;;;5125472;28;19959;-70
2022/10/27 07:25:14;;;;;;;;;;;8.30;99.90;;;;;;5125073;28;19982;-70
2022/10/27 07:27:40;;;;;;;;;;;8.40;99.90;;;;;;5125351;28;19955;-70
2022/10/27 07:30:09;;;;;;;;;;;8.40;99.90;;;;;;5125048;28;19921;-69
2022/10/27 07:32:35;;;;;;;;;;;8.40;99.90;;;;;;5125030;28;19926;-70
2022/10/27 07:35:02;;;;;;;;;;;8.50;99.90;;;;;;5124428;28;19919;-70
2022/10/27 07:37:28;;;;;;;;;;;8.50;99.90;;;;;;5124154;28;19958;-70
2022/10/27 07:39:55;;;;;;;;;;;8.50;99.90;;;;;;5125332;28;20115;-70
2022/10/27 07:42:22;;;;;;;;;;;8.60;99.90;;;;;;5124911;28;19999;-70
2022/10/27 07:44:48;;;;;;;;;;;8.70;99.90;;;;;;5124662;28;20115;-70
2022/10/27 07:47:16;;;;;;;;;;;8.70;99.90;;;;;;5125096;28;19983;-70
2022/10/27 07:49:43;;;;;;;;;;;8.80;99.90;;;;;;5125094;28;19920;-70
2022/10/27 07:52:09;;;;;;;;;;;8.80;99.90;;;;;;5125181;28;19926;-70
2022/10/27 07:54:36;;;;;;;;;;;8.90;99.90;;;;;;5124353;28;19942;-70
2022/10/27 07:57:03;;;;;;;;;;;8.90;99.90;;;;;;5124698;28;19920;-70
2022/10/27 07:59:29;;;;;;;;;;;9.00;99.90;;;;;;5124859;28;19926;-69
2022/10/27 08:01:56;;;;;;;;;;;9.10;99.90;;;;;;5124836;28;19999;-70
2022/10/27 08:04:24;;;;;;;;;;;9.20;99.90;;;;;;5124830;28;20207;-70
2022/10/27 08:06:50;;;;;;;;;;;9.20;99.90;;;;;;5119820;28;20164;-70
2022/10/27 08:09:17;;;;;;;;;;;9.30;99.90;;;;;;5104284;28;19983;-70
2022/10/27 08:11:44;;;;;;;;;;;9.40;99.90;;;;;;5108399;28;19979;-70
2022/10/27 08:14:11;;;;;;;;;;;9.50;99.90;;;;;;5119743;28;19928;-70
2022/10/27 08:16:37;;;;;;;;;;;9.60;99.90;;;;;;5123898;28;19969;-70
2022/10/27 08:19:04;;;;;;;;;;;9.70;99.90;;;;;;5124513;28;19952;-70
2022/10/27 08:21:32;;;;;;;;;;;9.70;99.90;;;;;;5124339;28;19983;-70
2022/10/27 08:23:59;;;;;;;;;;;9.80;99.90;;;;;;5124307;28;19983;-70
2022/10/27 08:26:25;;;;;;;;;;;9.90;99.90;;;;;;5123819;28;19919;-70
2022/10/27 08:28:52;;;;;;;;;;;10.00;99.90;;;;;;5124430;28;19926;-70
2022/10/27 08:31:18;;;;;;;;;;;10.10;99.90;;;;;;5124274;28;19962;-70
2022/10/27 08:33:45;;;;;;;;;;;10.20;99.90;;;;;;5124082;28;19932;-70
2022/10/27 08:36:12;;;;;;;;;;;10.30;99.90;;;;;;5114455;28;20222;-70
2022/10/27 08:38:40;;;;;;;;;;;10.40;99.90;;;;;;5103769;28;19958;-70
2022/10/27 08:41:13;;;;;;;;;;;10.60;99.90;;;;;;5114117;28;19920;-70
2022/10/27 08:43:44;;;;;;;;;;;10.70;99.90;;;;;;5123999;28;19988;-70
2022/10/27 08:46:13;;;;;;;;;;;11.10;99.90;;;;;;5123313;28;19978;-69
2022/10/27 08:48:40;;;;;;;;;;;11.50;99.90;;;;;;5123849;28;20096;-70
2022/10/27 08:51:13;;;;;;;;;;;11.80;99.90;;;;;;5123575;28;19928;-70
2022/10/27 08:53:44;;;;;;;;;;;12.10;99.90;;;;;;5123988;28;20178;-70
2022/10/27 08:56:11;;;;;;;;;;;12.30;99.90;;;;;;5123070;28;19919;-70
2022/10/27 08:58:39;;;;;;;;;;;12.50;99.90;;;;;;5124042;28;19920;-71
2022/10/27 09:01:11;;;;;;;;;;;12.70;99.90;;;;;;5123591;28;19935;-70
2022/10/27 09:03:48;;;;;;;;;;;12.70;99.90;;;;;;5123470;28;19934;-70
2022/10/27 09:06:18;;;;;;;;;;;12.90;99.90;;;;;;5123053;28;20207;-70
2022/10/27 09:08:49;;;;;;;;;;;13.10;99.90;;;;;;5123413;28;19926;-71
2022/10/27 09:11:20;;;;;;;;;;;13.20;99.90;;;;;;5123778;28;19919;-70
2022/10/27 09:13:55;;;;;;;;;;;13.40;99.90;;;;;;5123506;28;19926;-70
2022/10/27 09:16:26;;;;;;;;;;;13.50;99.90;;;;;;5123120;28;19920;-70
2022/10/27 09:18:55;;;;;;;;;;;13.60;99.90;;;;;;5123878;28;20115;-70
2022/10/27 09:21:22;;;;;;;;;;;13.80;99.90;;;;;;5123602;28;19920;-70
2022/10/27 09:23:51;;;;;;;;;;;13.90;99.90;;;;;;5123701;28;19927;-70
2022/10/27 09:26:19;;;;;;;;;;;14.00;99.90;;;;;;5122860;28;19920;-70
2022/10/27 09:28:48;;;;;;;;;;;14.10;99.90;;;;;;5123587;28;19963;-70
2022/10/27 09:31:16;;;;;;;;;;;14.20;99.90;;;;;;5123392;28;19923;-70
2022/10/27 09:33:47;;;;;;;;;;;14.30;99.90;;;;;;5119685;28;19923;-70
2022/10/27 09:36:14;;;;;;;;;;;14.40;99.90;;;;;;5114438;28;19928;-70
2022/10/27 09:38:41;;;;;;;;;;;14.50;99.90;;;;;;5123361;28;20207;-71
2022/10/27 09:41:09;;;;;;;;;;;14.50;99.90;;;;;;5123278;28;19959;-71
2022/10/27 09:43:36;;;;;;;;;;;14.60;99.90;;;;;;5102862;28;19920;-71
2022/10/27 09:46:04;;;;;;;;;;;14.70;99.90;;;;;;5102483;28;19920;-71
2022/10/27 09:48:31;;;;;;;;;;;14.70;99.90;;;;;;5102844;28;19943;-71
2022/10/27 09:50:59;;;;;;;;;;;14.80;99.90;;;;;;5102919;28;20263;-70
2022/10/27 09:53:36;;;;;;;;;;;14.90;99.90;;;;;;5120828;28;19990;-70
2022/10/27 09:56:03;;;;;;;;;;;15.00;99.90;;;;;;5122936;28;19978;-70
2022/10/27 09:58:31;;;;;;;;;;;15.20;99.90;;;;;;5124009;28;19936;-71
2022/10/27 10:00:58;;;;;;;;;;;15.30;99.90;;;;;;5126791;28;19924;-71
2022/10/27 10:03:25;;;;;;;;;;;15.40;99.90;;;;;;5126863;28;19920;-71
2022/10/27 10:05:57;;;;;;;;;;;15.60;99.90;;;;;;5126247;28;19962;-71
2022/10/27 10:08:25;;;;;;;;;;;15.70;99.90;;;;;;5127361;28;19978;-71
2022/10/27 10:10:56;;;;;;;;;;;15.90;99.90;;;;;;5127130;28;19920;-71
2022/10/27 10:13:23;;;;;;;;;;;16.00;99.90;;;;;;5126893;28;19979;-70
2022/10/27 10:16:07;;;;;;;;;;;16.20;99.90;;;;;;5125536;28;19942;-71
2022/10/27 10:18:35;;;;;;;;;;;16.30;99.90;;;;;;5126911;28;20114;-71
2022/10/27 10:21:02;;;;;;;;;;;16.40;99.90;;;;;;5127003;28;19923;-71
2022/10/27 10:23:30;;;;;;;;;;;16.60;99.90;;;;;;5126505;28;19994;-72
2022/10/27 10:25:57;;;;;;;;;;;16.70;99.90;;;;;;5125991;28;20231;-71
2022/10/27 10:28:28;;;;;;;;;;;16.90;99.90;;;;;;5126757;28;19920;-70
2022/10/27 10:30:57;;;;;;;;;;;17.00;99.90;;;;;;5127150;28;19926;-72
2022/10/27 10:33:24;;;;;;;;;;;17.10;99.90;;;;;;5126747;28;20376;-71
2022/10/27 10:35:51;;;;;;;;;;;17.30;99.90;;;;;;5105551;28;19983;-70
2022/10/27 10:38:25;;;;;;;;;;;17.40;99.90;;;;;;5106425;28;20211;-71
2022/10/27 10:40:56;;;;;;;;;;;17.50;99.90;;;;;;5114621;28;20211;-70
2022/10/27 10:43:23;;;;;;;;;;;17.60;99.90;;;;;;5124096;28;19919;-71
2022/10/27 10:45:52;;;;;;;;;;;17.70;99.90;;;;;;5124742;28;19987;-71
2022/10/27 10:48:23;;;;;;;;;;;17.90;99.90;;;;;;5125748;28;19919;-72
2022/10/27 10:50:50;;;;;;;;;;;18.00;99.90;;;;;;5126329;28;19919;-70
2022/10/27 10:53:22;;;;;;;;;;;18.10;99.90;;;;;;5123706;28;20011;-70
2022/10/27 10:55:49;;;;;;;;;;;18.30;99.90;;;;;;5125369;28;19920;-70
2022/10/27 10:58:17;;;;;;;;;;;18.50;99.90;;;;;;5126123;28;19987;-71
2022/10/27 11:00:52;;;;;;;;;;;18.60;99.90;;;;;;5126379;28;19991;-71
2022/10/27 11:03:19;;;;;;;;;;;18.80;99.90;;;;;;5126345;28;19926;-71
2022/10/27 11:05:52;;;;;;;;;;;18.90;99.90;;;;;;5125662;28;19919;-71
2022/10/27 11:08:20;;;;;;;;;;;19.10;99.90;;;;;;5125910;28;19920;-70
2022/10/27 11:10:47;;;;;;;;;;;19.20;99.90;;;;;;5125815;28;20278;-71
2022/10/27 11:13:16;;;;;;;;;;;19.40;99.90;;;;;;5126065;28;19920;-71
2022/10/27 11:15:46;;;;;;;;;;;19.50;99.90;;;;;;5125354;28;19962;-70
2022/10/27 11:18:14;;;;;;;;;;;19.70;99.90;;;;;;5123646;28;19920;-70
2022/10/27 11:20:41;;;;;;;;;;;19.80;99.90;;;;;;5125783;28;20215;-71
2022/10/27 11:23:14;;;;;;;;;;;19.90;99.90;;;;;;5125540;28;19920;-71
2022/10/27 11:25:40;;;;;;;;;;;20.00;99.90;;;;;;5125141;28;19927;-71
2022/10/27 11:28:14;;;;;;;;;;;20.10;99.90;;;;;;5125498;28;19920;-70
2022/10/27 11:30:44;;;;;;;;;;;20.10;99.90;;;;;;5125407;28;19926;-70
2022/10/27 11:33:14;;;;;;;;;;;20.20;99.90;;;;;;5125888;28;19926;-70
2022/10/27 11:35:44;;;;;;;;;;;20.40;99.90;;;;;;5124774;28;20155;-71
2022/10/27 11:38:17;;;;;;;;;;;20.50;99.90;;;;;;5125680;28;19982;-71
2022/10/27 11:40:46;;;;;;;;;;;20.50;99.90;;;;;;5125398;28;19987;-70
2022/10/27 11:43:17;;;;;;;;;;;20.60;99.90;;;;;;5125369;28;19919;-71
2022/10/27 11:45:48;;;;;;;;;;;20.70;99.90;;;;;;5124659;28;19919;-71
2022/10/27 11:48:17;;;;;;;;;;;20.70;99.90;;;;;;5125233;28;19926;-71
2022/10/27 11:50:47;;;;;;;;;;;20.80;99.90;;;;;;5125120;28;19923;-70
2022/10/27 11:53:15;;;;;;;;;;;20.90;99.90;;;;;;5125380;28;19986;-71
2022/10/27 11:55:49;;;;;;;;;;;21.10;99.90;;;;;;5124282;28;19926;-70
2022/10/27 11:58:19;;;;;;;;;;;21.20;99.90;;;;;;5125153;28;19939;-70
2022/10/27 12:00:52;;;;;;;;;;;21.40;99.90;;;;;;5124850;28;20273;-70
2022/10/27 12:03:33;;;;;;;;;;;21.40;99.90;;;;;;5125029;28;19919;-70
2022/10/27 12:06:03;;;;;;;;;;;21.50;99.90;;;;;;5120637;28;19928;-70
2022/10/27 12:08:35;;;;;;;;;;;21.60;99.90;;;;;;5124780;28;19919;-71
2022/10/27 12:11:13;;;;;;;;;;;21.60;99.90;;;;;;5124623;28;19920;-71
2022/10/27 12:13:44;;;;;;;;;;;21.70;99.90;;;;;;5124657;28;19926;-70
2022/10/27 12:16:15;;;;;;;;;;;21.80;99.90;;;;;;5124020;28;19919;-70
2022/10/27 12:18:44;;;;;;;;;;;22.00;99.90;;;;;;5124640;28;19920;-71
2022/10/27 12:21:13;;;;;;;;;;;22.10;99.90;;;;;;5124565;28;20204;-70
2022/10/27 12:23:44;;;;;;;;;;;22.10;99.90;;;;;;5124125;28;20115;-70
2022/10/27 12:26:14;;;;;;;;;;;22.20;99.90;;;;;;5123613;28;19941;-75
2022/10/27 12:28:41;;;;;;;;;;;22.30;99.90;;;;;;5124389;28;19926;-71
2022/10/27 12:31:11;;;;;;;;;;;22.30;99.90;;;;;;5124282;28;20207;-71
2022/10/27 12:33:40;;;;;;;;;;;22.30;99.90;;;;;;5124292;28;19982;-71
2022/10/27 12:36:08;;;;;;;;;;;22.40;99.90;;;;;;5123314;28;19920;-71
2022/10/27 12:38:39;;;;;;;;;;;22.40;99.90;;;;;;5124413;28;19919;-71
2022/10/27 12:41:09;;;;;;;;;;;22.50;99.90;;;;;;5124411;28;19926;-71
2022/10/27 12:43:40;;;;;;;;;;;22.70;99.90;;;;;;5123936;28;19920;-71
2022/10/27 12:46:11;;;;;;;;;;;22.80;99.90;;;;;;5123745;28;19987;-69
2022/10/27 12:48:46;;;;;;;;;;;22.80;99.90;;;;;;5124235;28;19991;-69
2022/10/27 12:51:18;;;;;;;;;;;23.00;99.90;;;;;;5124443;28;19919;-69
2022/10/27 12:53:45;;;;;;;;;;;23.10;99.90;;;;;;5124403;28;19920;-69
2022/10/27 12:56:21;;;;;;;;;;;23.20;99.90;;;;;;5123827;28;19941;-69
2022/10/27 12:58:51;;;;;;;;;;;23.20;99.90;;;;;;5123938;28;19991;-70
2022/10/27 13:01:23;;;;;;;;;;;23.10;99.90;;;;;;5124339;28;19928;-70
2022/10/27 13:04:03;;;;;;;;;;;23.20;99.90;;;;;;5124199;28;19999;-70
2022/10/27 13:06:40;;;;;;;;;;;23.20;99.90;;;;;;5122997;28;20222;-70
2022/10/27 13:09:17;;;;;;;;;;;23.20;99.90;;;;;;5124048;28;19983;-71
2022/10/27 13:12:02;;;;;;;;;;;23.40;99.90;;;;;;5124340;28;20022;-71
2022/10/27 13:14:40;;;;;;;;;;;23.50;99.90;;;;;;5123321;28;19941;-71
2022/10/27 13:17:10;;;;;;;;;;;23.50;99.90;;;;;;5124066;28;19919;-71
2022/10/27 13:19:42;;;;;;;;;;;23.60;99.90;;;;;;5124168;28;19919;-70
2022/10/27 13:22:11;;;;;;;;;;;23.50;99.90;;;;;;5123911;28;19986;-71
2022/10/27 13:24:41;;;;;;;;;;;23.50;99.90;;;;;;5122759;28;20119;-71
2022/10/27 13:27:11;;;;;;;;;;;23.60;99.90;;;;;;5123566;28;19919;-71
2022/10/27 13:29:43;;;;;;;;;;;23.60;99.90;;;;;;5122697;28;19983;-70
2022/10/27 13:32:16;;;;;;;;;;;23.60;99.90;;;;;;5121753;28;20235;-70
2022/10/27 13:35:03;;;;;;;;;;;23.80;99.90;;;;;;5124262;28;20163;-69
2022/10/27 13:37:39;;;;;;;;;;;23.80;99.90;;;;;;5127434;28;19951;-70
2022/10/27 13:40:34;;;;;;;;;;;23.70;99.90;;;;;;5126885;28;19920;-70
2022/10/27 13:43:15;;;;;;;;;;;23.60;99.90;;;;;;5127973;28;19959;-70
2022/10/27 13:45:50;;;;;;;;;;;23.40;99.90;;;;;;5126649;28;20225;-70
2022/10/27 13:48:33;;;;;;;;;;;23.40;99.90;;;;;;5127555;28;19987;-70
2022/10/27 13:51:19;;;;;;;;;;;23.30;99.90;;;;;;5126497;28;20154;-70
2022/10/27 13:53:47;;;;;;;;;;;23.20;99.90;;;;;;5127429;28;20271;-70
2022/10/27 13:56:29;;;;;;;;;;;23.20;99.90;;;;;;5126844;28;19965;-71
2022/10/27 13:58:57;;;;;;;;;;;23.30;99.90;;;;;;5124326;28;19919;-71
2022/10/27 14:01:35;;;;;;;;;;;23.30;99.90;;;;;;5126825;28;20223;-71
2022/10/27 14:04:19;;;;;;;;;;;23.40;99.90;;;;;;5127355;28;20262;-68
2022/10/27 14:06:47;;;;;;;;;;;23.60;99.90;;;;;;5126491;28;19924;-69
2022/10/27 14:09:30;;;;;;;;;;;23.70;99.90;;;;;;5127249;28;19983;-67
2022/10/27 14:11:58;;;;;;;;;;;23.80;99.90;;;;;;5127418;28;19991;-69
2022/10/27 14:14:27;;;;;;;;;;;23.90;99.90;;;;;;5127017;28;20346;-68
2022/10/27 14:16:54;;;;;;;;;;;23.90;99.90;;;;;;5126417;28;20266;-67
2022/10/27 14:19:22;;;;;;;;;;;24.00;99.90;;;;;;5127048;28;20203;-69
2022/10/27 14:21:51;;;;;;;;;;;24.00;99.90;;;;;;5127142;28;19986;-68
2022/10/27 14:24:19;;;;;;;;;;;24.00;99.90;;;;;;5126744;28;19920;-69
2022/10/27 14:26:47;;;;;;;;;;;24.00;99.90;;;;;;5126248;28;19951;-68
2022/10/27 14:29:21;;;;;;;;;;;24.10;99.90;;;;;;5126958;28;19983;-69
2022/10/27 14:31:47;;;;;;;;;;;24.00;99.90;;;;;;5127182;28;19983;-70
2022/10/27 14:34:15;;;;;;;;;;;24.00;99.90;;;;;;5126796;28;19956;-69